Time;durP1;ratioP1;P1;durP2;ratioP2;P2;SDS_P1;SDS_P2;PMS_P1;PMS_P2;Temp;Humidity;BMP_temperature;BMP_pressure;BME280_temperature;BME280_humidity;BME280_pressure;Samples;Min_cycle;Max_cycle;Signal;HPM_P1;HPM_P2
2022/09/23 07:55:41;;;;;;;;;;;;;;;16.90;42.19;101164.41;5109704;27;20422;-36
2022/09/23 07:58:06;;;;;;;;;;;;;;;15.68;44.67;101161.22;5109088;28;19916;-37
2022/09/23 08:00:32;;;;;;;;;;;;;;;14.70;47.58;101162.28;5099911;28;19973;-36
2022/09/23 08:02:57;;;;;;;;;;;;;;;14.16;48.92;101155.25;5109760;28;19958;-37
2022/09/23 08:05:22;;;;;;;;;;;;;;;13.91;50.05;101167.13;5106211;28;20343;-35
2022/09/23 08:07:48;;;;;;;;;;;;;;;13.85;51.24;101170.72;5120781;28;19935;-37
2022/09/23 08:10:19;;;;;;;;;;;;;;;13.79;51.42;101164.66;5094275;28;19958;-36
2022/09/23 08:12:45;;;;;;;;;;;;;;;13.69;51.89;101172.75;5131306;27;19916;-37
2022/09/23 08:15:10;;;;;;;;;;;;;;;13.65;52.55;101175.47;5107134;28;20299;-36
2022/09/23 08:17:36;;;;;;;;;;;;;;;13.58;52.55;101172.03;5111850;28;19931;-36
2022/09/23 08:20:01;;;;;;;;;;;;;;;13.34;53.09;101171.44;5110602;28;20019;-36
2022/09/23 08:22:26;;;;;;;;;;;;;;;13.39;53.76;101164.28;5113960;28;20056;-36
2022/09/23 08:24:52;;;;;;;;;;;;;;;13.30;53.86;101164.38;5107762;28;19920;-36
2022/09/23 08:27:17;;;;;;;;;;;;;;;13.11;54.60;101164.63;5105878;28;20288;-36
2022/09/23 08:29:42;;;;;;;;;;;;;;;13.08;56.26;101159.38;5107935;28;19920;-36
2022/09/23 08:32:07;;;;;;;;;;;;;;;13.12;55.98;101166.38;5103596;28;19966;-36
2022/09/23 08:34:34;;;;;;;;;;;;;;;13.18;55.75;101149.53;5103492;28;19920;-36
2022/09/23 08:36:59;;;;;;;;;;;;;;;13.24;55.58;101164.47;5103261;28;19923;-36
2022/09/23 08:39:25;;;;;;;;;;;;;;;13.29;55.35;101162.63;5107188;28;19935;-36
2022/09/23 08:42:05;;;;;;;;;;;;;;;13.38;55.66;101159.88;5108568;28;19919;-36
2022/09/23 08:44:37;;;;;;;;;;;;;;;13.38;55.63;101145.75;5102333;28;19916;-38
2022/09/23 08:47:12;;;;;;;;;;;;;;;13.56;55.89;101149.94;5129178;27;19919;-36
2022/09/23 08:49:44;;;;;;;;;;;;;;;13.69;56.27;101140.06;5129960;27;19916;-36
2022/09/23 08:52:14;;;;;;;;;;;;;;;13.75;56.92;101131.13;5106054;28;20368;-36
2022/09/23 08:54:39;;;;;;;;;;;;;;;13.89;56.83;101130.91;5106873;28;19924;-36
2022/09/23 08:57:04;;;;;;;;;;;;;;;13.95;56.68;101122.88;5104445;28;19923;-36
2022/09/23 08:59:35;;;;;;;;;;;;;;;14.03;56.54;101125.38;5099322;28;20347;-36
2022/09/23 09:02:04;;;;;;;;;;;;;;;14.14;56.24;101120.78;5125909;27;19954;-36
2022/09/23 09:04:36;;;;;;;;;;;;;;;14.23;56.57;101120.66;5146160;27;19956;-36
2022/09/23 09:07:08;;;;;;;;;;;;;;;14.35;57.00;101116.03;5092682;28;19977;-36
2022/09/23 09:09:36;;;;;;;;;;;;;;;14.48;56.49;101108.72;5089850;28;20026;-37
2022/09/23 09:12:04;;;;;;;;;;;;;;;14.63;56.42;101112.84;5084955;28;19916;-36
2022/09/23 09:14:30;;;;;;;;;;;;;;;14.74;56.47;101107.34;5119681;27;20037;-36
2022/09/23 09:17:06;;;;;;;;;;;;;;;14.82;55.98;101102.78;5094653;28;20389;-37
2022/09/23 09:19:32;;;;;;;;;;;;;;;15.02;56.11;101106.81;5093567;28;19916;-37
2022/09/23 09:21:57;;;;;;;;;;;;;;;15.10;55.98;101101.31;5094645;28;20334;-37
2022/09/23 09:24:28;;;;;;;;;;;;;;;15.27;55.94;101101.84;5094662;28;19993;-36
2022/09/23 09:26:54;;;;;;;;;;;;;;;15.38;55.98;101106.06;5092237;28;19969;-36
2022/09/23 09:29:22;;;;;;;;;;;;;;;15.50;55.99;101099.56;5092948;28;19912;-36
2022/09/23 09:31:48;;;;;;;;;;;;;;;15.63;55.70;101094.84;5093313;28;19919;-37
2022/09/23 09:34:15;;;;;;;;;;;;;;;15.75;55.58;101094.59;5094203;28;20441;-36
2022/09/23 09:37:05;;;;;;;;;;;;;;;15.91;55.26;101099.53;5074345;28;20293;-37
2022/09/23 09:39:31;;;;;;;;;;;;;;;16.01;56.04;101092.22;5074349;28;19919;-36
2022/09/23 09:41:58;;;;;;;;;;;;;;;16.12;55.75;101094.59;5087829;28;19915;-36
2022/09/23 09:44:23;;;;;;;;;;;;;;;16.26;55.57;101083.59;5092504;28;19922;-37
2022/09/23 09:47:27;;;;;;;;;;;;;;;16.40;55.41;101083.22;5093898;28;20011;-36
2022/09/23 09:50:12;;;;;;;;;;;;;;;16.54;54.95;101089.03;5041340;28;19922;-38
2022/09/23 09:52:38;;;;;;;;;;;;;;;16.65;54.98;101090.53;5084304;28;19955;-36
2022/09/23 09:55:12;;;;;;;;;;;;;;;16.78;54.68;101086.59;5092058;28;19978;-36
2022/09/23 09:57:40;;;;;;;;;;;;;;;16.92;54.55;101080.00;5093339;28;19994;-36
2022/09/23 10:00:34;;;;;;;;;;;;;;;16.97;54.43;101086.06;5086631;28;19923;-37
2022/09/23 10:03:02;;;;;;;;;;;;;;;17.14;54.13;101082.06;5093077;28;19915;-36
2022/09/23 10:05:32;;;;;;;;;;;;;;;17.23;53.94;101071.13;5091000;28;19950;-37
2022/09/23 10:08:27;;;;;;;;;;;;;;;17.33;53.77;101077.03;5093644;28;19963;-36
2022/09/23 10:10:58;;;;;;;;;;;;;;;17.43;54.03;101072.28;5079127;28;19920;-37
2022/09/23 10:13:26;;;;;;;;;;;;;;;17.55;53.88;101071.88;5096550;28;19981;-36
2022/09/23 10:15:53;;;;;;;;;;;;;;;17.66;53.42;101073.34;5088908;28;19946;-37
2022/09/23 10:18:26;;;;;;;;;;;;;;;17.77;53.30;101067.69;5087779;28;19956;-36
2022/09/23 10:20:51;;;;;;;;;;;;;;;17.89;53.17;101069.03;5089735;28;19978;-36
2022/09/23 10:23:21;;;;;;;;;;;;;;;17.99;53.27;101059.81;5091701;28;20388;-37
2022/09/23 10:25:59;;;;;;;;;;;;;;;18.10;52.94;101061.28;5083615;28;19924;-37
2022/09/23 10:28:37;;;;;;;;;;;;;;;18.20;52.58;101057.34;5121904;27;19923;-36
2022/09/23 10:31:06;;;;;;;;;;;;;;;18.30;52.55;101061.44;5084646;28;20019;-37
2022/09/23 10:33:31;;;;;;;;;;;;;;;18.39;52.20;101062.03;5079903;28;19958;-37
2022/09/23 10:35:57;;;;;;;;;;;;;;;18.48;52.20;101056.38;5089148;28;20028;-37
2022/09/23 10:38:22;;;;;;;;;;;;;;;18.58;51.59;101051.56;5090431;28;19920;-37
2022/09/23 10:46:40;;;;;;;;;;;;;;;18.86;51.33;101042.50;5117004;27;20336;-37
2022/09/23 10:49:15;;;;;;;;;;;;;;;18.99;51.29;101045.59;5090313;28;20368;-37
2022/09/23 10:51:56;;;;;;;;;;;;;;;19.09;50.61;101032.75;5088825;28;20320;-37
2022/09/23 10:54:24;;;;;;;;;;;;;;;19.17;49.95;101030.66;5074512;28;19920;-37
2022/09/23 10:56:56;;;;;;;;;;;;;;;19.23;49.81;101029.53;5086460;28;20568;-37
2022/09/23 10:59:47;;;;;;;;;;;;;;;19.28;49.75;101030.25;5114517;27;19921;-37
2022/09/23 11:02:15;;;;;;;;;;;;;;;19.37;49.68;101026.31;5084973;28;20388;-37
2022/09/23 11:04:47;;;;;;;;;;;;;;;19.43;49.43;101015.38;5090475;28;19915;-37
2022/09/23 11:07:27;;;;;;;;;;;;;;;19.50;49.33;101015.97;5088658;28;19982;-37
2022/09/23 11:09:59;;;;;;;;;;;;;;;19.55;49.91;101011.31;5088498;28;19999;-37
2022/09/23 11:12:37;;;;;;;;;;;;;;;19.64;49.32;101014.53;5087496;28;20384;-37
2022/09/23 11:15:06;;;;;;;;;;;;;;;19.71;49.40;101011.53;5090932;28;19928;-39
2022/09/23 11:17:44;;;;;;;;;;;;;;;19.81;48.62;101022.72;5074143;28;20434;-37
2022/09/23 11:20:21;;;;;;;;;;;;;;;19.85;48.80;101013.63;5104299;28;19935;-37
2022/09/23 11:22:53;;;;;;;;;;;;;;;19.96;48.63;101004.25;5076096;28;19916;-37
2022/09/23 11:25:26;;;;;;;;;;;;;;;20.08;48.45;101009.09;5087651;28;20024;-37
2022/09/23 11:27:55;;;;;;;;;;;;;;;20.16;48.76;101003.41;5089151;28;19922;-37
2022/09/23 11:30:21;;;;;;;;;;;;;;;20.23;48.62;101006.69;5088588;28;19923;-37
2022/09/23 11:32:55;;;;;;;;;;;;;;;20.31;48.41;100991.13;5088887;28;19920;-38
2022/09/23 11:35:23;;;;;;;;;;;;;;;20.41;48.38;100988.06;5091607;28;19973;-37
2022/09/23 11:37:55;;;;;;;;;;;;;;;20.49;48.43;100991.25;5125151;27;19912;-37
2022/09/23 11:40:31;;;;;;;;;;;;;;;20.58;48.12;100990.81;5086121;28;19916;-37
2022/09/23 11:43:00;;;;;;;;;;;;;;;20.67;48.54;100978.81;5090998;28;19916;-38
2022/09/23 11:45:30;;;;;;;;;;;;;;;20.77;48.13;100973.88;5089854;28;20474;-37
2022/09/23 11:48:10;;;;;;;;;;;;;;;20.89;47.69;100967.97;5088484;28;19916;-37
2022/09/23 11:50:36;;;;;;;;;;;;;;;21.01;47.40;100962.97;5109646;27;19923;-37
2022/09/23 11:53:12;;;;;;;;;;;;;;;21.12;47.43;100966.00;5089843;28;20036;-36
2022/09/23 11:55:58;;;;;;;;;;;;;;;21.19;47.09;100971.91;5090308;28;19943;-39
2022/09/23 11:58:27;;;;;;;;;;;;;;;21.22;47.29;100968.22;5065369;28;19916;-39
2022/09/23 12:00:54;;;;;;;;;;;;;;;21.27;46.93;100960.78;5069791;28;20388;-38
2022/09/23 12:03:22;;;;;;;;;;;;;;;21.34;46.94;100956.84;5084949;28;20204;-39
2022/09/23 12:05:50;;;;;;;;;;;;;;;21.43;46.29;100957.34;5085418;28;19917;-39
2022/09/23 12:08:25;;;;;;;;;;;;;;;21.47;45.68;100951.75;5086355;28;19951;-39
2022/09/23 12:11:00;;;;;;;;;;;;;;;21.53;45.31;100955.94;5080076;28;19931;-38
2022/09/23 12:13:44;;;;;;;;;;;;;;;21.55;45.27;100948.69;5077965;28;19955;-37
2022/09/23 12:16:12;;;;;;;;;;;;;;;21.59;44.93;100949.38;5089403;28;19990;-37
2022/09/23 12:18:44;;;;;;;;;;;;;;;21.61;44.93;100948.34;5102475;28;19920;-38
2022/09/23 12:21:17;;;;;;;;;;;;;;;21.67;44.69;100945.38;5100472;28;19923;-37
2022/09/23 12:23:42;;;;;;;;;;;;;;;21.75;44.11;100938.75;5085248;28;19959;-37
2022/09/23 12:26:11;;;;;;;;;;;;;;;21.82;44.15;100933.94;5088103;28;19962;-37
2022/09/23 12:28:40;;;;;;;;;;;;;;;21.87;43.34;100943.47;5091583;28;19950;-37
2022/09/23 12:31:09;;;;;;;;;;;;;;;21.95;43.23;100934.16;5087713;28;19973;-37
2022/09/23 12:33:35;;;;;;;;;;;;;;;21.99;42.75;100922.31;5087555;28;20312;-37
2022/09/23 12:36:01;;;;;;;;;;;;;;;22.07;43.06;100929.97;5066137;28;19920;-37
2022/09/23 12:38:31;;;;;;;;;;;;;;;22.11;42.92;100924.31;5088377;28;20018;-37
2022/09/23 12:40:56;;;;;;;;;;;;;;;22.18;42.46;100920.34;5088409;28;20463;-37
2022/09/23 12:43:29;;;;;;;;;;;;;;;22.26;42.18;100928.00;5083472;28;20006;-37
2022/09/23 12:46:14;;;;;;;;;;;;;;;22.34;41.89;100918.66;5093286;28;19912;-37
2022/09/23 12:48:44;;;;;;;;;;;;;;;22.38;41.94;100929.13;5091231;28;20372;-37
2022/09/23 12:51:16;;;;;;;;;;;;;;;22.48;41.68;100917.88;5083844;28;21808;-37
2022/09/23 12:53:52;;;;;;;;;;;;;;;22.56;41.30;100907.59;5072282;28;20453;-37
2022/09/23 12:56:27;;;;;;;;;;;;;;;22.62;40.78;100906.41;5096879;28;19995;-37
2022/09/23 12:58:56;;;;;;;;;;;;;;;22.71;40.91;100900.50;5076218;28;19924;-37
2022/09/23 13:01:22;;;;;;;;;;;;;;;22.78;41.15;100895.66;5098098;28;19959;-37
2022/09/23 13:06:41;;;;;;;;;;;;;;;22.90;41.66;100894.94;5087738;28;19931;-37
2022/09/23 13:09:19;;;;;;;;;;;;;;;23.00;41.04;100894.38;5089754;28;19920;-37
2022/09/23 13:11:44;;;;;;;;;;;;;;;23.03;40.80;100888.81;5092224;28;19916;-37
2022/09/23 13:14:11;;;;;;;;;;;;;;;23.07;41.18;100887.69;5092190;28;20368;-37
2022/09/23 13:16:40;;;;;;;;;;;;;;;23.13;40.99;100879.28;5087626;28;20191;-37
2022/09/23 13:19:26;;;;;;;;;;;;;;;23.18;41.43;100871.78;5074154;28;20281;-37
2022/09/23 13:21:58;;;;;;;;;;;;;;;23.25;40.93;100877.69;5092509;28;20292;-37
2022/09/23 13:24:30;;;;;;;;;;;;;;;23.33;40.59;100871.81;5093425;28;19927;-37
2022/09/23 13:26:56;;;;;;;;;;;;;;;23.43;40.13;100864.09;5090513;28;19960;-37
2022/09/23 13:29:41;;;;;;;;;;;;;;;23.59;39.46;100858.66;5088876;28;19917;-37
2022/09/23 13:32:13;;;;;;;;;;;;;;;23.67;39.97;100850.97;5085264;28;20312;-37
2022/09/23 13:34:39;;;;;;;;;;;;;;;23.80;39.76;100850.19;5085198;28;20060;-37
2022/09/23 13:37:12;;;;;;;;;;;;;;;23.65;39.76;100854.72;5090191;28;19962;-37
2022/09/23 13:39:38;;;;;;;;;;;;;;;23.61;40.45;100845.94;5076418;28;20117;-37
2022/09/23 13:42:04;;;;;;;;;;;;;;;23.70;40.52;100842.69;5092948;28;20007;-37
2022/09/23 13:44:29;;;;;;;;;;;;;;;23.77;40.79;100847.72;5094146;28;19916;-39
2022/09/23 13:46:56;;;;;;;;;;;;;;;23.76;41.23;100848.66;5090684;28;19923;-37
2022/09/23 13:49:25;;;;;;;;;;;;;;;23.80;41.22;100839.41;5091304;28;19916;-37
2022/09/23 13:51:53;;;;;;;;;;;;;;;23.83;41.24;100833.84;5094021;28;19947;-37
2022/09/23 13:54:27;;;;;;;;;;;;;;;23.88;40.59;100837.13;5093762;28;19926;-37
2022/09/23 13:56:53;;;;;;;;;;;;;;;23.90;40.52;100834.31;5091043;28;20361;-37
2022/09/23 13:59:21;;;;;;;;;;;;;;;23.92;40.71;100827.91;5092767;28;19919;-37
2022/09/23 14:01:47;;;;;;;;;;;;;;;23.92;40.34;100835.97;5089321;28;19938;-37
2022/09/23 14:04:24;;;;;;;;;;;;;;;23.94;39.89;100828.66;5093925;28;20360;-37
2022/09/23 14:06:49;;;;;;;;;;;;;;;23.93;39.30;100835.00;5091658;28;20010;-37
2022/09/23 14:09:15;;;;;;;;;;;;;;;23.96;38.50;100818.66;5126267;27;20003;-38
2022/09/23 14:11:40;;;;;;;;;;;;;;;23.91;38.87;100820.75;5118610;27;19960;-38
2022/09/23 14:14:06;;;;;;;;;;;;;;;23.92;39.93;100810.88;5092452;28;19966;-39
2022/09/23 14:16:32;;;;;;;;;;;;;;;23.89;38.77;100802.97;5091902;28;19919;-39
2022/09/23 14:18:58;;;;;;;;;;;;;;;23.82;40.07;100806.06;5089058;28;20412;-39
2022/09/23 14:21:26;;;;;;;;;;;;;;;23.78;39.20;100809.06;5093540;28;19912;-39
2022/09/23 14:23:52;;;;;;;;;;;;;;;23.69;40.06;100805.97;5093057;28;19986;-39
2022/09/23 14:26:17;;;;;;;;;;;;;;;23.67;40.21;100801.63;5093492;28;19951;-39
2022/09/23 14:28:43;;;;;;;;;;;;;;;23.63;40.55;100800.97;5092249;28;19991;-39
2022/09/23 14:31:08;;;;;;;;;;;;;;;23.61;40.63;100800.19;5090210;28;20396;-37
2022/09/23 14:33:34;;;;;;;;;;;;;;;23.61;40.12;100802.03;5086589;28;19959;-38
2022/09/23 14:36:05;;;;;;;;;;;;;;;23.54;39.88;100790.78;5091014;28;20169;-38
2022/09/23 14:38:49;;;;;;;;;;;;;;;23.46;39.60;100791.25;5093172;28;19970;-38
2022/09/23 14:41:22;;;;;;;;;;;;;;;23.43;39.39;100791.44;5093226;28;19991;-40
2022/09/23 14:43:49;;;;;;;;;;;;;;;23.39;39.69;100790.78;5091109;28;19916;-38
2022/09/23 14:46:16;;;;;;;;;;;;;;;23.38;39.27;100786.34;5091011;28;19915;-38
2022/09/23 14:48:41;;;;;;;;;;;;;;;23.35;39.14;100781.16;5091541;28;20359;-39
2022/09/23 14:51:07;;;;;;;;;;;;;;;23.32;38.90;100778.63;5076146;28;20035;-38
2022/09/23 14:53:33;;;;;;;;;;;;;;;23.26;39.02;100782.56;5092777;28;19936;-38
2022/09/23 14:56:05;;;;;;;;;;;;;;;23.28;37.92;100777.09;5092647;28;19995;-37
2022/09/23 14:58:38;;;;;;;;;;;;;;;23.24;38.44;100772.84;5087933;28;19931;-39
2022/09/23 15:01:17;;;;;;;;;;;;;;;23.18;38.89;100769.56;5065726;28;20488;-39
2022/09/23 15:03:46;;;;;;;;;;;;;;;23.17;38.88;100766.97;5090972;28;19916;-38
2022/09/23 15:06:11;;;;;;;;;;;;;;;23.18;39.02;100763.34;5092624;28;19912;-39
2022/09/23 15:08:37;;;;;;;;;;;;;;;23.19;38.44;100762.38;5089382;28;19919;-38
2022/09/23 15:11:03;;;;;;;;;;;;;;;23.13;38.78;100760.91;5089876;28;19920;-38
2022/09/23 15:13:32;;;;;;;;;;;;;;;23.13;38.45;100765.41;5086856;28;20369;-38
2022/09/23 15:15:59;;;;;;;;;;;;;;;23.13;38.20;100755.53;5081331;28;19920;-38
2022/09/23 15:18:25;;;;;;;;;;;;;;;23.06;38.12;100754.19;5081236;28;19977;-38
2022/09/23 15:20:52;;;;;;;;;;;;;;;23.02;38.34;100752.63;5081660;28;20423;-37
2022/09/23 15:23:37;;;;;;;;;;;;;;;22.97;38.37;100757.44;5088044;28;20362;-39
2022/09/23 15:26:10;;;;;;;;;;;;;;;22.91;38.55;100758.66;5081501;28;20014;-39
2022/09/23 15:28:35;;;;;;;;;;;;;;;22.85;38.65;100754.53;5084708;28;19916;-39
2022/09/23 15:31:01;;;;;;;;;;;;;;;22.80;38.81;100754.78;5088530;28;19962;-39
2022/09/23 15:33:27;;;;;;;;;;;;;;;22.72;38.78;100761.56;5097665;28;20369;-39
2022/09/23 15:35:53;;;;;;;;;;;;;;;22.66;38.97;100763.69;5086057;28;19951;-38
2022/09/23 15:38:18;;;;;;;;;;;;;;;22.60;38.76;100758.66;5119587;27;20003;-39
2022/09/23 15:40:43;;;;;;;;;;;;;;;22.50;38.98;100754.72;5084035;28;19925;-37
2022/09/23 15:43:15;;;;;;;;;;;;;;;22.46;39.67;100747.81;5095295;28;19919;-37
2022/09/23 15:45:43;;;;;;;;;;;;;;;22.37;40.15;100752.78;5088763;28;19959;-36
2022/09/23 15:48:20;;;;;;;;;;;;;;;22.33;39.19;100755.72;5082700;28;20369;-37
2022/09/23 15:50:45;;;;;;;;;;;;;;;22.22;39.85;100742.91;5080051;28;20357;-36
2022/09/23 15:53:15;;;;;;;;;;;;;;;22.15;40.00;100743.25;5076936;28;19920;-36
2022/09/23 15:55:40;;;;;;;;;;;;;;;22.07;40.14;100745.50;5038984;28;19920;-37
2022/09/23 15:58:05;;;;;;;;;;;;;;;22.01;40.76;100746.72;5059159;28;19925;-36
2022/09/23 16:00:31;;;;;;;;;;;;;;;21.94;41.30;100739.13;5071172;28;20413;-36
2022/09/23 16:02:56;;;;;;;;;;;;;;;21.89;41.58;100736.69;5048884;28;20003;-36
2022/09/23 16:05:34;;;;;;;;;;;;;;;21.83;41.82;100745.06;5050213;28;19916;-36
2022/09/23 16:08:00;;;;;;;;;;;;;;;21.76;42.07;100740.06;5040808;28;19931;-37
2022/09/23 16:10:26;;;;;;;;;;;;;;;21.70;42.72;100732.31;5067163;28;19916;-36
2022/09/23 16:12:52;;;;;;;;;;;;;;;21.66;42.75;100730.75;5069373;28;20258;-36
2022/09/23 16:15:18;;;;;;;;;;;;;;;21.61;42.87;100727.47;5069665;28;20017;-36
2022/09/23 16:17:44;;;;;;;;;;;;;;;21.56;43.04;100727.69;5051817;28;20384;-37
2022/09/23 16:20:10;;;;;;;;;;;;;;;21.50;43.12;100723.53;5069422;28;19916;-37
2022/09/23 16:22:35;;;;;;;;;;;;;;;21.46;43.29;100721.09;5068660;28;19917;-36
2022/09/23 16:25:01;;;;;;;;;;;;;;;21.40;43.58;100724.97;5074411;28;20386;-37
2022/09/23 16:27:26;;;;;;;;;;;;;;;21.35;43.60;100725.25;5049161;28;19917;-36
2022/09/23 16:29:51;;;;;;;;;;;;;;;21.32;43.69;100722.72;5068648;28;19975;-38
2022/09/23 16:32:16;;;;;;;;;;;;;;;21.27;43.82;100725.66;5068551;28;19917;-36
2022/09/23 16:34:43;;;;;;;;;;;;;;;21.23;43.70;100728.56;5070088;28;19932;-36
2022/09/23 16:37:10;;;;;;;;;;;;;;;21.17;43.89;100726.22;5073260;28;19928;-36
2022/09/23 16:39:35;;;;;;;;;;;;;;;21.13;43.75;100723.72;5041447;28;19923;-36
2022/09/23 16:42:01;;;;;;;;;;;;;;;21.07;43.84;100723.16;5067380;28;19916;-36
2022/09/23 16:44:26;;;;;;;;;;;;;;;20.92;44.03;100722.13;5067482;28;19917;-36
2022/09/23 16:46:51;;;;;;;;;;;;;;;20.81;44.13;100722.69;5074904;28;20011;-37
2022/09/23 16:49:16;;;;;;;;;;;;;;;20.72;44.21;100729.38;5071061;28;20382;-37
2022/09/23 16:51:42;;;;;;;;;;;;;;;20.63;44.32;100728.03;5064544;28;19961;-36
2022/09/23 16:54:10;;;;;;;;;;;;;;;20.57;44.44;100731.03;5067051;28;19928;-37
2022/09/23 16:56:42;;;;;;;;;;;;;;;20.52;44.62;100733.94;5081931;28;20040;-36
2022/09/23 16:59:08;;;;;;;;;;;;;;;20.44;44.68;100733.44;5105615;28;19919;-36
2022/09/23 17:04:18;;;;;;;;;;;;;;;20.29;44.70;100724.34;5086160;28;19974;-36
2022/09/23 17:06:45;;;;;;;;;;;;;;;20.23;44.83;100717.50;5088493;28;19931;-36
2022/09/23 17:09:10;;;;;;;;;;;;;;;20.18;44.97;100719.53;5084697;28;19978;-36
2022/09/23 17:11:36;;;;;;;;;;;;;;;20.13;45.01;100722.44;5118177;27;20372;-36
2022/09/23 17:14:02;;;;;;;;;;;;;;;20.05;45.02;100714.78;5091863;28;20361;-36
2022/09/23 17:16:29;;;;;;;;;;;;;;;19.98;45.20;100724.88;5087274;28;19924;-36
2022/09/23 17:18:54;;;;;;;;;;;;;;;19.94;45.29;100727.78;5092894;28;20326;-36
2022/09/23 17:21:20;;;;;;;;;;;;;;;19.84;45.29;100717.50;5080233;28;19955;-36
2022/09/23 17:23:45;;;;;;;;;;;;;;;19.78;45.46;100717.81;5077222;28;19923;-37
2022/09/23 17:26:11;;;;;;;;;;;;;;;19.72;45.37;100723.44;5088564;28;19916;-36
2022/09/23 17:28:36;;;;;;;;;;;;;;;19.65;45.33;100712.16;5090786;28;20296;-36
2022/09/23 17:31:02;;;;;;;;;;;;;;;19.59;45.57;100718.69;5086123;28;19912;-36
2022/09/23 17:33:29;;;;;;;;;;;;;;;19.51;45.60;100714.59;5085770;28;20372;-36
2022/09/23 17:35:55;;;;;;;;;;;;;;;19.45;45.64;100715.75;5077770;28;19920;-36
2022/09/23 17:38:21;;;;;;;;;;;;;;;19.39;45.64;100716.03;5090159;28;19923;-36
2022/09/23 17:40:50;;;;;;;;;;;;;;;19.32;45.83;100716.34;5090615;28;20276;-36
2022/09/23 17:43:16;;;;;;;;;;;;;;;19.22;45.97;100704.31;5085805;28;19999;-36
2022/09/23 17:45:41;;;;;;;;;;;;;;;19.17;46.09;100707.19;5088933;28;19924;-36
2022/09/23 17:48:07;;;;;;;;;;;;;;;19.10;46.21;100706.59;5080489;28;19916;-37
2022/09/23 17:50:32;;;;;;;;;;;;;;;19.06;46.04;100702.31;5091346;28;20403;-36
2022/09/23 17:52:58;;;;;;;;;;;;;;;18.96;46.31;100706.28;5086184;28;20345;-36
2022/09/23 17:55:24;;;;;;;;;;;;;;;18.90;46.34;100709.25;5083951;28;20365;-36
2022/09/23 17:57:49;;;;;;;;;;;;;;;18.84;46.39;100708.56;5088770;28;19916;-36
2022/09/23 18:00:14;;;;;;;;;;;;;;;18.80;46.46;100709.63;5087055;28;19920;-36
2022/09/23 18:02:40;;;;;;;;;;;;;;;18.75;46.28;100710.78;5089211;28;20264;-36
2022/09/23 18:05:05;;;;;;;;;;;;;;;18.69;46.38;100717.25;5080301;28;19975;-36
2022/09/23 18:07:30;;;;;;;;;;;;;;;18.63;46.50;100712.16;5079326;28;20102;-37
2022/09/23 18:09:55;;;;;;;;;;;;;;;18.56;46.62;100723.13;5079117;28;19920;-36
2022/09/23 18:12:21;;;;;;;;;;;;;;;18.51;46.60;100722.41;5083918;28;20399;-36
2022/09/23 18:14:47;;;;;;;;;;;;;;;18.43;46.94;100721.88;5078081;28;19975;-36
2022/09/23 18:17:12;;;;;;;;;;;;;;;18.38;46.80;100718.53;5117638;27;19924;-36
2022/09/23 18:19:37;;;;;;;;;;;;;;;18.27;47.05;100721.66;5086542;28;20290;-36
2022/09/23 18:22:03;;;;;;;;;;;;;;;18.25;47.01;100729.72;5084676;28;19924;-36
2022/09/23 18:24:28;;;;;;;;;;;;;;;18.17;47.15;100721.16;5090929;28;20011;-38
2022/09/23 18:26:56;;;;;;;;;;;;;;;18.07;47.26;100721.47;5087657;28;19962;-36
2022/09/23 18:29:21;;;;;;;;;;;;;;;18.04;47.19;100718.94;5082446;28;20007;-36
2022/09/23 18:31:47;;;;;;;;;;;;;;;18.00;47.35;100719.13;5081987;28;20030;-36
2022/09/23 18:34:15;;;;;;;;;;;;;;;17.95;47.54;100721.97;5086229;28;20320;-36
2022/09/23 18:36:40;;;;;;;;;;;;;;;17.87;47.63;100718.75;5083008;28;19970;-37
2022/09/23 18:39:05;;;;;;;;;;;;;;;17.82;47.71;100727.81;5093648;28;20335;-37
2022/09/23 18:41:31;;;;;;;;;;;;;;;17.75;47.98;100720.09;5120601;27;20385;-36
2022/09/23 18:43:56;;;;;;;;;;;;;;;17.72;47.94;100715.75;5088600;28;19916;-36
2022/09/23 18:46:22;;;;;;;;;;;;;;;17.64;48.21;100715.16;5119917;27;19927;-36
2022/09/23 18:51:33;;;;;;;;;;;;;;;17.52;48.51;100728.03;5084987;28;20029;-36
2022/09/23 18:53:59;;;;;;;;;;;;;;;17.46;48.52;100724.72;5081823;28;19924;-36
2022/09/23 18:56:25;;;;;;;;;;;;;;;17.40;48.57;100725.81;5081186;28;19920;-36
2022/09/23 18:58:51;;;;;;;;;;;;;;;17.36;48.64;100724.19;5077311;28;19920;-36
2022/09/23 19:01:19;;;;;;;;;;;;;;;17.31;48.71;100724.38;5082175;28;19920;-36
2022/09/23 19:03:44;;;;;;;;;;;;;;;17.29;48.56;100712.88;5090334;28;20062;-36
2022/09/23 19:06:10;;;;;;;;;;;;;;;17.22;48.82;100706.91;5083303;28;20058;-36
2022/09/23 19:08:35;;;;;;;;;;;;;;;17.15;49.03;100705.41;5084010;28;20317;-36
2022/09/23 19:11:01;;;;;;;;;;;;;;;17.10;49.09;100712.69;5082471;28;19927;-36
2022/09/23 19:13:27;;;;;;;;;;;;;;;17.05;49.04;100705.72;5089624;28;20010;-36
2022/09/23 19:15:52;;;;;;;;;;;;;;;17.02;49.30;100711.16;5081745;28;19927;-36
2022/09/23 19:18:19;;;;;;;;;;;;;;;16.97;49.34;100704.25;5120909;27;19919;-37
2022/09/23 19:20:48;;;;;;;;;;;;;;;16.92;49.41;100707.94;5088113;28;19924;-35
2022/09/23 19:23:14;;;;;;;;;;;;;;;16.89;49.38;100720.47;5087831;28;20271;-36
2022/09/23 19:25:41;;;;;;;;;;;;;;;16.84;49.38;100711.78;5081411;28;20081;-36
2022/09/23 19:28:07;;;;;;;;;;;;;;;16.80;49.50;100709.22;5088084;28;19931;-36
2022/09/23 19:30:32;;;;;;;;;;;;;;;16.74;49.57;100713.91;5088505;28;19935;-36
2022/09/23 19:32:58;;;;;;;;;;;;;;;16.68;49.62;100713.16;5089739;28;19920;-35
2022/09/23 19:35:23;;;;;;;;;;;;;;;16.65;49.81;100725.72;5085786;28;19928;-36
2022/09/23 19:37:49;;;;;;;;;;;;;;;16.63;49.62;100724.91;5082446;28;19923;-36
2022/09/23 19:40:14;;;;;;;;;;;;;;;16.58;49.80;100726.84;5077776;28;19921;-36
2022/09/23 19:42:39;;;;;;;;;;;;;;;16.54;49.88;100726.94;5089312;28;19912;-37
2022/09/23 19:45:05;;;;;;;;;;;;;;;16.51;49.78;100724.38;5087324;28;19927;-35
2022/09/23 19:47:30;;;;;;;;;;;;;;;16.49;50.01;100720.03;5086390;28;20018;-36
2022/09/23 19:49:55;;;;;;;;;;;;;;;16.44;49.93;100720.19;5084754;28;19912;-36
2022/09/23 19:52:21;;;;;;;;;;;;;;;16.39;50.12;100712.38;5087248;28;19916;-36
2022/09/23 19:54:47;;;;;;;;;;;;;;;16.38;50.11;100715.09;5082995;28;20321;-36
2022/09/23 19:57:12;;;;;;;;;;;;;;;16.34;50.21;100713.44;5084553;28;19923;-36
2022/09/23 19:59:39;;;;;;;;;;;;;;;16.28;50.11;100710.03;5117960;28;20258;-36
2022/09/23 20:02:04;;;;;;;;;;;;;;;16.26;50.36;100708.34;5085759;28;20373;-36
2022/09/23 20:04:29;;;;;;;;;;;;;;;16.22;50.26;100704.06;5085475;28;20005;-36
2022/09/23 20:06:54;;;;;;;;;;;;;;;16.22;50.33;100710.25;5081647;28;19916;-36
2022/09/23 20:09:20;;;;;;;;;;;;;;;16.19;50.41;100698.84;5078585;28;19973;-35
2022/09/23 20:11:45;;;;;;;;;;;;;;;16.17;50.50;100696.22;5080588;28;20018;-36
2022/09/23 20:14:10;;;;;;;;;;;;;;;16.09;50.61;100693.81;5084174;28;19920;-36
2022/09/23 20:16:36;;;;;;;;;;;;;;;16.08;50.50;100702.72;5086351;28;19916;-36
2022/09/23 20:19:02;;;;;;;;;;;;;;;16.01;50.55;100691.38;5120248;28;20371;-36
2022/09/23 20:21:28;;;;;;;;;;;;;;;15.95;50.78;100693.34;5085688;28;19966;-36
2022/09/23 20:23:53;;;;;;;;;;;;;;;15.94;50.79;100700.44;5089507;28;19974;-36
2022/09/23 20:29:02;;;;;;;;;;;;;;;15.90;50.82;100690.81;5087838;28;19938;-36
2022/09/23 20:31:28;;;;;;;;;;;;;;;15.90;50.94;100694.38;5078841;28;20365;-36
2022/09/23 20:34:04;;;;;;;;;;;;;;;15.86;51.05;100686.53;5088271;28;19920;-36
2022/09/23 20:36:29;;;;;;;;;;;;;;;15.82;50.95;100690.19;5089702;28;19916;-36
2022/09/23 20:38:55;;;;;;;;;;;;;;;15.83;51.07;100691.94;5122159;28;20584;-36
2022/09/23 20:41:20;;;;;;;;;;;;;;;15.78;51.05;100678.78;5084185;28;20372;-36
2022/09/23 20:43:47;;;;;;;;;;;;;;;15.82;50.78;100679.56;5082656;28;19924;-36
2022/09/23 20:46:13;;;;;;;;;;;;;;;15.75;51.09;100682.44;5080776;28;20292;-36
2022/09/23 20:48:39;;;;;;;;;;;;;;;15.74;51.18;100680.66;5072132;28;20404;-36
2022/09/23 20:51:05;;;;;;;;;;;;;;;15.72;51.12;100674.53;5089314;28;19916;-36
2022/09/23 20:53:31;;;;;;;;;;;;;;;15.69;51.21;100673.75;5087246;28;19939;-37